Time;durP1;ratioP1;P1;durP2;ratioP2;P2;SDS_P1;SDS_P2;PMS_P1;PMS_P2;Temp;Humidity;BMP_temperature;BMP_pressure;BME280_temperature;BME280_humidity;BME280_pressure;Samples;Min_cycle;Max_cycle;Signal;HPM_P1;HPM_P2
2022/10/21 00:00:25;;;;;;;46.43;15.80;;;1.10;99.90;;;;;;5076252;28;20694;-85
2022/10/21 00:02:51;;;;;;;52.57;19.40;;;1.00;99.90;;;;;;5076517;28;20181;-85
2022/10/21 00:05:17;;;;;;;39.47;19.00;;;1.00;99.90;;;;;;5059714;28;20623;-84
2022/10/21 00:07:42;;;;;;;58.73;21.90;;;1.00;99.90;;;;;;5076952;28;20540;-84
2022/10/21 00:10:09;;;;;;;48.60;19.10;;;1.00;99.90;;;;;;5043090;28;20187;-84
2022/10/21 00:12:35;;;;;;;52.63;20.23;;;1.00;99.90;;;;;;5094834;28;20189;-84
2022/10/21 00:15:03;;;;;;;51.03;20.77;;;1.00;99.90;;;;;;5094161;28;20179;-84
2022/10/21 00:17:29;;;;;;;53.90;21.07;;;1.00;99.90;;;;;;5076222;28;20627;-84
2022/10/21 00:19:54;;;;;;;53.40;20.40;;;1.00;99.90;;;;;;5094808;28;20217;-85
2022/10/21 00:22:20;;;;;;;34.63;17.03;;;0.90;99.90;;;;;;5094108;28;20178;-84
2022/10/21 00:24:46;;;;;;;34.70;16.80;;;0.90;99.90;;;;;;5076294;28;20184;-84
2022/10/21 00:27:11;;;;;;;40.97;12.90;;;0.90;99.90;;;;;;5092887;28;20266;-84
2022/10/21 00:29:37;;;;;;;44.40;10.47;;;0.90;99.90;;;;;;5058400;28;20191;-84
2022/10/21 00:32:02;;;;;;;26.43;10.00;;;1.00;99.90;;;;;;5094306;28;20190;-84
2022/10/21 00:34:28;;;;;;;19.00;9.17;;;0.90;99.90;;;;;;5078992;28;20179;-84
2022/10/21 00:36:54;;;;;;;19.80;11.40;;;;;;;;;;5078769;28;20190;-84
2022/10/21 00:39:20;;;;;;;19.27;9.50;;;1.00;99.90;;;;;;5062381;28;20758;-84
2022/10/21 00:41:45;;;;;;;19.30;9.80;;;1.00;99.90;;;;;;5096672;28;20261;-83
2022/10/21 00:44:14;;;;;;;23.40;9.33;;;1.10;99.90;;;;;;5061887;28;20187;-84
2022/10/21 00:46:42;;;;;;;21.57;8.57;;;1.00;99.90;;;;;;5078595;28;20178;-84
2022/10/21 00:49:19;;;;;;;19.10;7.70;;;1.00;99.90;;;;;;5078358;28;20187;-84
2022/10/21 00:51:48;;;;;;;17.97;7.97;;;1.00;99.90;;;;;;5078307;28;20188;-84
2022/10/21 00:54:15;;;;;;;24.93;11.10;;;1.00;99.90;;;;;;5078248;28;20190;-84
2022/10/21 00:56:43;;;;;;;19.77;8.47;;;1.00;99.90;;;;;;5096262;28;20230;-84
2022/10/21 00:59:09;;;;;;;18.53;8.00;;;1.20;99.90;;;;;;5096188;28;20210;-84
2022/10/21 01:01:35;;;;;;;15.60;5.93;;;;;;;;;;5078484;28;20189;-84
2022/10/21 01:04:02;;;;;;;15.07;6.70;;;;;;;;;;5078072;28;20186;-84
2022/10/21 01:06:30;;;;;;;11.17;6.77;;;0.80;99.90;;;;;;5061991;28;20183;-84
2022/10/21 01:08:57;;;;;;;30.60;9.47;;;0.80;99.90;;;;;;5077953;28;20208;-88
2022/10/21 01:11:24;;;;;;;11.10;6.60;;;0.80;99.90;;;;;;5078262;28;20183;-84
2022/10/21 01:14:11;;;;;;;16.03;7.47;;;0.80;99.90;;;;;;5078027;28;20281;-84
2022/10/21 01:17:08;;;;;;;16.83;6.47;;;0.80;99.90;;;;;;5096300;28;20171;-84
2022/10/21 01:20:18;;;;;;;7.93;4.93;;;0.80;99.90;;;;;;5078068;28;20295;-84
2022/10/21 01:23:13;;;;;;;11.67;5.10;;;0.80;99.90;;;;;;5049789;28;20183;-84
2022/10/21 01:25:50;;;;;;;6.43;4.70;;;0.80;99.90;;;;;;5023042;28;20186;-84
2022/10/21 01:28:35;;;;;;;13.60;6.57;;;0.80;99.90;;;;;;5095825;28;20635;-84
2022/10/21 01:31:16;;;;;;;8.20;4.90;;;0.70;99.90;;;;;;5077709;28;20214;-85
2022/10/21 01:33:52;;;;;;;14.67;6.50;;;0.70;99.90;;;;;;5095980;28;20167;-84
2022/10/21 01:36:29;;;;;;;6.90;5.33;;;0.70;99.90;;;;;;5077168;28;20217;-84
2022/10/21 01:39:18;;;;;;;10.47;5.70;;;0.60;99.90;;;;;;5095406;28;20202;-85
2022/10/21 01:41:53;;;;;;;9.83;6.50;;;0.70;99.90;;;;;;5077526;28;20619;-84
2022/10/21 01:44:25;;;;;;;14.13;8.50;;;0.70;99.90;;;;;;5077510;28;20189;-85
2022/10/21 01:47:00;;;;;;;17.00;7.37;;;1.20;99.90;;;;;;5095846;28;20283;-84
2022/10/21 01:49:41;;;;;;;20.90;8.27;;;0.70;99.90;;;;;;5095442;28;20244;-84
2022/10/21 01:52:07;;;;;;;14.60;7.70;;;0.60;99.90;;;;;;5077182;28;20174;-84
2022/10/21 01:54:40;;;;;;;22.83;8.57;;;0.60;99.90;;;;;;5077312;28;20181;-84
2022/10/21 01:57:07;;;;;;;19.87;8.33;;;0.60;99.90;;;;;;5095013;28;20240;-84
2022/10/21 01:59:34;;;;;;;20.53;8.40;;;0.80;99.90;;;;;;5095260;28;20655;-84
2022/10/21 02:02:03;;;;;;;17.77;8.13;;;0.60;99.90;;;;;;5077249;28;20190;-84
2022/10/21 02:04:31;;;;;;;18.07;8.53;;;0.50;99.90;;;;;;5077151;28;20174;-84
2022/10/21 02:06:57;;;;;;;19.10;7.77;;;0.50;99.90;;;;;;5095643;28;20170;-84
2022/10/21 02:09:23;;;;;;;56.93;20.70;;;0.60;99.90;;;;;;5076803;28;20242;-84
2022/10/21 02:11:52;;;;;;;48.70;18.53;;;0.60;99.90;;;;;;5095419;28;20174;-84
2022/10/21 02:14:29;;;;;;;27.10;12.37;;;0.50;99.90;;;;;;5076627;28;20537;-84
2022/10/21 02:16:57;;;;;;;16.13;8.23;;;0.60;99.90;;;;;;5095263;28;20158;-84
2022/10/21 02:19:23;;;;;;;22.23;9.50;;;0.80;99.90;;;;;;5076600;28;20283;-84
2022/10/21 02:21:52;;;;;;;15.27;9.07;;;1.20;99.90;;;;;;5095140;28;20181;-84
2022/10/21 02:24:46;;;;;;;12.53;7.80;;;0.80;99.90;;;;;;5094903;28;20182;-85
2022/10/21 02:27:12;;;;;;;24.90;8.33;;;0.70;99.90;;;;;;5076619;28;20227;-84
2022/10/21 02:29:41;;;;;;;16.93;7.90;;;0.60;99.90;;;;;;5094792;28;20628;-85
2022/10/21 02:32:31;;;;;;;7.27;4.97;;;0.80;99.90;;;;;;5094221;28;20179;-85
2022/10/21 02:35:05;;;;;;;27.23;7.10;;;0.80;99.90;;;;;;5094620;28;20162;-84
2022/10/21 02:38:00;;;;;;;25.67;7.30;;;0.80;99.90;;;;;;5076450;28;20213;-84
2022/10/21 02:40:44;;;;;;;8.93;5.33;;;0.80;99.90;;;;;;5076239;28;20202;-84
2022/10/21 02:43:17;;;;;;;10.83;6.63;;;0.90;99.90;;;;;;5094495;28;20232;-85
2022/10/21 02:45:46;;;;;;;8.20;4.07;;;0.80;99.90;;;;;;5095113;28;20163;-84
2022/10/21 02:48:12;;;;;;;10.60;4.97;;;0.80;99.90;;;;;;5093799;28;20265;-85
2022/10/21 02:50:38;;;;;;;10.43;5.10;;;0.80;99.90;;;;;;5094754;28;20627;-85
2022/10/21 02:53:04;;;;;;;3.93;3.33;;;0.80;99.90;;;;;;5094089;28;20258;-85
2022/10/21 02:55:29;;;;;;;7.57;4.97;;;2.10;99.90;;;;;;5075142;28;20182;-85
2022/10/21 02:57:55;;;;;;;10.23;5.23;;;0.70;99.90;;;;;;5076089;28;20230;-84
2022/10/21 03:00:21;;;;;;;10.07;5.83;;;0.70;99.90;;;;;;5075947;28;20215;-84
2022/10/21 03:02:46;;;;;;;9.40;6.80;;;0.60;99.90;;;;;;5076056;28;20182;-84
2022/10/21 03:05:12;;;;;;;23.27;7.40;;;0.80;99.90;;;;;;5076268;28;20264;-85
2022/10/21 03:07:39;;;;;;;10.03;5.93;;;0.40;99.90;;;;;;5075949;28;20313;-84
2022/10/21 03:10:05;;;;;;;12.13;6.63;;;0.40;99.90;;;;;;5094267;28;20658;-84
2022/10/21 03:12:30;;;;;;;15.03;6.80;;;0.40;99.90;;;;;;5075747;28;20182;-85
2022/10/21 03:14:56;;;;;;;17.43;8.13;;;0.30;99.90;;;;;;5059122;28;20643;-84
2022/10/21 03:17:22;;;;;;;12.07;5.37;;;0.30;99.90;;;;;;5093738;28;20182;-84
2022/10/21 03:19:47;;;;;;;8.13;7.33;;;0.30;99.90;;;;;;5075432;28;20204;-84
2022/10/21 03:22:13;;;;;;;15.47;8.13;;;1.10;99.90;;;;;;5093426;28;20175;-84
2022/10/21 03:24:38;;;;;;;18.53;8.57;;;0.20;99.90;;;;;;5075532;28;20225;-83
2022/10/21 03:27:04;;;;;;;27.93;10.63;;;0.20;99.90;;;;;;5075740;28;20175;-84
2022/10/21 03:29:30;;;;;;;20.07;7.57;;;0.30;99.90;;;;;;5075491;28;20221;-84
2022/10/21 03:31:56;;;;;;;24.57;8.13;;;0.30;99.90;;;;;;5059071;28;20642;-83
2022/10/21 03:34:21;;;;;;;17.17;7.03;;;0.30;99.90;;;;;;5095716;28;20289;-83
2022/10/21 03:36:47;;;;;;;12.70;5.97;;;;;;;;;;5093783;28;20187;-84
2022/10/21 03:39:13;;;;;;;14.17;6.47;;;;;;;;;;5096422;28;20587;-86
2022/10/21 03:41:40;;;;;;;15.43;6.90;;;;;;;;;;5075890;28;20232;-84
2022/10/21 03:44:06;;;;;;;8.07;4.77;;;;;;;;;;5093488;28;20174;-84
2022/10/21 03:46:31;;;;;;;16.10;5.87;;;0.50;99.90;;;;;;5075513;28;20186;-86
2022/10/21 03:48:57;;;;;;;10.87;4.93;;;0.50;99.90;;;;;;5075339;28;20186;-85
2022/10/21 03:51:23;;;;;;;10.67;5.10;;;0.60;99.90;;;;;;5075621;28;20186;-85
2022/10/21 03:53:48;;;;;;;5.57;3.67;;;0.60;99.90;;;;;;5075279;28;20171;-86
2022/10/21 03:56:14;;;;;;;9.50;4.03;;;0.60;99.90;;;;;;5075363;28;20339;-87
2022/10/21 03:58:40;;;;;;;4.30;2.73;;;0.70;99.90;;;;;;5075677;28;20278;-86
2022/10/21 04:01:09;;;;;;;9.90;4.63;;;0.80;99.90;;;;;;5075499;28;20214;-86
2022/10/21 04:03:34;;;;;;;3.40;3.13;;;0.80;99.90;;;;;;5075111;28;20186;-85
2022/10/21 04:06:00;;;;;;;10.13;5.03;;;0.80;99.90;;;;;;5093666;28;20205;-85
2022/10/21 04:08:26;;;;;;;17.20;4.67;;;0.90;99.90;;;;;;5079221;28;20201;-85
2022/10/21 04:10:51;;;;;;;4.80;3.37;;;0.90;99.90;;;;;;5079346;28;20194;-85
2022/10/21 04:13:17;;;;;;;7.90;3.87;;;1.00;99.90;;;;;;5045912;28;20175;-86
2022/10/21 04:15:42;;;;;;;6.37;4.03;;;1.00;99.90;;;;;;5097033;28;20190;-84
2022/10/21 04:18:08;;;;;;;11.10;3.63;;;1.00;99.90;;;;;;5079233;28;20178;-84
2022/10/21 04:20:34;;;;;;;12.37;3.87;;;1.10;99.90;;;;;;5079028;28;20213;-84
2022/10/21 04:22:59;;;;;;;9.27;3.43;;;1.10;99.90;;;;;;5079486;28;20214;-85
2022/10/21 04:25:26;;;;;;;6.80;3.57;;;1.10;99.90;;;;;;5062729;28;20179;-84
2022/10/21 04:27:52;;;;;;;5.20;2.93;;;;;;;;;;5062365;28;20182;-84
2022/10/21 04:30:18;;;;;;;8.80;4.20;;;;;;;;;;5097123;28;20183;-84
2022/10/21 04:32:43;;;;;;;8.17;3.43;;;1.10;99.90;;;;;;5097098;28;20174;-85
2022/10/21 04:35:09;;;;;;;18.63;7.33;;;1.10;99.90;;;;;;5096990;28;20178;-85
2022/10/21 04:37:38;;;;;;;10.47;6.13;;;1.30;99.90;;;;;;5078837;28;20690;-84
2022/10/21 04:40:05;;;;;;;10.17;5.03;;;1.10;99.90;;;;;;5079059;28;20210;-85
2022/10/21 04:42:31;;;;;;;6.23;3.07;;;1.20;99.90;;;;;;5061554;28;20200;-87
2022/10/21 04:44:57;;;;;;;4.87;3.43;;;1.20;99.90;;;;;;5057480;28;20285;-86
2022/10/21 04:47:23;;;;;;;4.30;3.90;;;1.40;99.90;;;;;;5091935;28;20187;-85
2022/10/21 04:49:48;;;;;;;6.67;3.93;;;1.50;99.90;;;;;;5077986;28;20181;-85
2022/10/21 04:52:14;;;;;;;3.40;2.90;;;;;;;;;;5095906;28;20213;-85
2022/10/21 04:54:40;;;;;;;5.87;3.53;;;1.20;99.90;;;;;;5096470;28;20262;-85
2022/10/21 04:57:05;;;;;;;5.30;4.57;;;1.20;99.90;;;;;;5078025;28;20590;-85
2022/10/21 04:59:31;;;;;;;4.60;3.87;;;1.20;99.90;;;;;;5061397;28;20206;-84
2022/10/21 05:01:57;;;;;;;11.97;5.13;;;1.20;99.90;;;;;;5078735;28;20185;-85
2022/10/21 05:04:23;;;;;;;9.30;4.30;;;1.20;99.90;;;;;;5096294;28;20179;-85
2022/10/21 05:06:48;;;;;;;4.73;2.87;;;1.20;99.90;;;;;;5078294;28;20289;-85
2022/10/21 05:09:14;;;;;;;7.90;3.33;;;1.20;99.90;;;;;;5078231;28;20186;-85
2022/10/21 05:11:40;;;;;;;4.63;4.03;;;;;;;;;;5061428;28;20179;-85
2022/10/21 05:14:06;;;;;;;12.77;4.53;;;;;;;;;;5096291;28;20544;-85
2022/10/21 05:16:32;;;;;;;9.00;4.23;;;;;;;;;;5096535;28;20178;-85
2022/10/21 05:18:58;;;;;;;6.23;3.57;;;1.20;99.90;;;;;;5077830;28;20202;-85
2022/10/21 05:21:24;;;;;;;6.50;4.13;;;1.30;99.90;;;;;;5045146;28;20178;-85
2022/10/21 05:23:50;;;;;;;7.63;4.97;;;;;;;;;;5096420;28;20624;-85
2022/10/21 05:26:15;;;;;;;9.27;5.03;;;1.30;99.90;;;;;;5078563;28;20182;-85
2022/10/21 05:28:41;;;;;;;7.77;4.77;;;1.40;99.90;;;;;;5096096;28;20236;-85
2022/10/21 05:31:06;;;;;;;7.07;4.03;;;1.40;99.90;;;;;;5061650;28;20183;-84
2022/10/21 05:33:32;;;;;;;3.30;3.00;;;1.90;99.90;;;;;;5061644;28;20207;-84
2022/10/21 05:36:01;;;;;;;8.53;4.13;;;1.60;99.90;;;;;;5078088;28;20519;-84
2022/10/21 05:38:28;;;;;;;5.47;3.90;;;1.50;99.90;;;;;;5077934;28;20189;-85
2022/10/21 05:40:54;;;;;;;5.37;3.73;;;1.50;99.90;;;;;;5078504;28;20188;-85
2022/10/21 05:43:19;;;;;;;3.23;2.93;;;1.50;99.90;;;;;;5078388;28;20683;-84
2022/10/21 05:45:45;;;;;;;8.77;4.07;;;1.60;99.90;;;;;;5044491;28;20182;-84
2022/10/21 05:48:11;;;;;;;11.67;4.83;;;1.60;99.90;;;;;;5095873;28;20179;-85
2022/10/21 05:50:36;;;;;;;11.27;3.83;;;1.70;99.90;;;;;;5060920;28;20278;-84
2022/10/21 05:53:02;;;;;;;10.63;5.73;;;;;;;;;;5095832;28;20186;-84
2022/10/21 05:55:28;;;;;;;12.00;4.17;;;1.90;99.90;;;;;;5096129;28;20182;-85
2022/10/21 05:57:54;;;;;;;6.00;4.00;;;;;;;;;;5095963;28;20234;-84
2022/10/21 06:00:20;;;;;;;5.33;3.53;;;;;;;;;;5077325;28;20659;-85
2022/10/21 06:02:46;;;;;;;10.87;5.50;;;1.90;99.90;;;;;;5060592;28;20609;-85
2022/10/21 06:05:12;;;;;;;7.70;4.87;;;2.00;99.90;;;;;;5060984;28;20212;-85
2022/10/21 06:07:37;;;;;;;12.77;6.77;;;2.10;99.90;;;;;;5080013;28;20619;-85
2022/10/21 06:10:03;;;;;;;13.67;4.53;;;2.20;99.90;;;;;;5079507;28;20195;-84
2022/10/21 06:12:29;;;;;;;8.57;3.83;;;2.30;99.90;;;;;;5080190;28;20222;-85
2022/10/21 06:14:55;;;;;;;5.77;3.17;;;2.50;99.90;;;;;;5046744;28;20195;-84
2022/10/21 06:17:21;;;;;;;6.63;3.50;;;2.70;99.90;;;;;;5091732;27;20183;-85
2022/10/21 06:19:47;;;;;;;9.93;4.37;;;2.80;99.90;;;;;;5102102;27;20197;-87
2022/10/21 06:22:13;;;;;;;4.37;3.37;;;2.90;99.90;;;;;;5119453;27;20172;-85
2022/10/21 06:24:38;;;;;;;5.90;3.17;;;3.00;99.90;;;;;;5101963;27;20159;-95
2022/10/21 06:27:04;;;;;;;14.13;7.13;;;3.10;99.90;;;;;;5118770;27;20248;-85
2022/10/21 06:29:30;;;;;;;13.20;5.20;;;3.30;99.90;;;;;;5083071;28;20310;-84
2022/10/21 06:31:56;;;;;;;9.77;3.73;;;3.30;99.90;;;;;;5089273;28;20192;-84
2022/10/21 06:34:21;;;;;;;8.57;4.97;;;3.40;99.90;;;;;;5097402;28;20221;-84
2022/10/21 06:36:47;;;;;;;6.00;4.30;;;;;;;;;;5099698;28;20245;-85
2022/10/21 06:39:14;;;;;;;10.03;4.23;;;;;;;;;;5117788;28;20200;-84
2022/10/21 06:41:39;;;;;;;9.77;3.57;;;3.70;99.90;;;;;;5098251;28;20247;-85
2022/10/21 06:44:05;;;;;;;8.10;4.00;;;3.90;99.90;;;;;;5087209;28;20178;-84
2022/10/21 06:46:30;;;;;;;7.63;3.57;;;4.00;99.90;;;;;;5100421;28;20179;-84
2022/10/21 06:48:56;;;;;;;5.30;3.23;;;;;;;;;;5098304;28;20175;-84
2022/10/21 06:51:24;;;;;;;8.20;2.93;;;4.30;99.90;;;;;;5097274;28;20257;-84
2022/10/21 06:53:55;;;;;;;3.77;2.50;;;4.60;99.90;;;;;;5060974;28;20560;-85
2022/10/21 06:56:22;;;;;;;6.03;3.67;;;4.50;99.90;;;;;;5094677;28;20179;-84
2022/10/21 06:58:48;;;;;;;6.50;3.17;;;4.70;99.90;;;;;;5043161;28;20578;-85
2022/10/21 07:01:20;;;;;;;6.07;3.67;;;4.80;99.90;;;;;;5094318;28;20182;-85
2022/10/21 07:03:46;;;;;;;4.23;3.27;;;4.90;99.90;;;;;;5094352;28;20181;-85
2022/10/21 07:06:12;;;;;;;8.90;3.07;;;5.00;99.90;;;;;;5095770;28;20183;-84
2022/10/21 07:08:38;;;;;;;6.83;3.03;;;5.10;99.90;;;;;;5076090;28;20210;-84
2022/10/21 07:11:05;;;;;;;5.53;3.13;;;5.10;99.90;;;;;;5093644;28;20210;-85
2022/10/21 07:13:30;;;;;;;3.83;2.43;;;5.10;99.90;;;;;;5094082;28;20220;-85
2022/10/21 07:16:02;;;;;;;3.47;2.30;;;5.20;99.90;;;;;;5059056;28;20174;-85
2022/10/21 07:18:28;;;;;;;5.97;3.80;;;5.20;99.90;;;;;;5075853;28;20658;-85
2022/10/21 07:20:54;;;;;;;3.13;2.17;;;5.30;99.90;;;;;;5093885;28;20181;-85
2022/10/21 07:23:20;;;;;;;3.60;2.43;;;5.40;99.90;;;;;;5094167;28;20175;-85
2022/10/21 07:25:45;;;;;;;6.33;3.77;;;5.50;99.90;;;;;;5075545;28;20652;-86
2022/10/21 07:28:11;;;;;;;4.13;2.67;;;5.50;99.90;;;;;;5093991;28;20182;-86
2022/10/21 07:30:42;;;;;;;4.50;2.43;;;5.70;99.90;;;;;;5075704;28;20182;-86
2022/10/21 07:33:08;;;;;;;3.27;2.47;;;5.90;99.90;;;;;;5093766;28;20174;-85
2022/10/21 07:35:34;;;;;;;4.73;2.63;;;6.00;99.90;;;;;;5076066;28;20178;-85
2022/10/21 07:38:00;;;;;;;4.13;2.50;;;6.00;99.90;;;;;;5058881;28;20205;-85
2022/10/21 07:40:27;;;;;;;2.57;2.27;;;6.20;99.90;;;;;;5075547;28;20222;-86
2022/10/21 07:42:53;;;;;;;5.97;3.07;;;6.30;99.90;;;;;;5093515;28;20220;-86
2022/10/21 07:45:19;;;;;;;4.37;2.43;;;6.50;99.90;;;;;;5058938;28;20189;-86
2022/10/21 07:47:45;;;;;;;3.90;2.43;;;6.60;99.90;;;;;;5042390;28;20178;-86
2022/10/21 07:50:11;;;;;;;3.77;2.50;;;6.70;99.90;;;;;;5093791;28;20186;-87
2022/10/21 07:52:44;;;;;;;4.57;2.37;;;6.80;99.90;;;;;;5075583;28;20575;-87
2022/10/21 07:55:11;;;;;;;6.20;2.13;;;6.90;99.90;;;;;;5059322;28;20182;-87
2022/10/21 07:57:37;;;;;;;6.73;2.30;;;7.00;99.90;;;;;;5042228;28;20230;-88
2022/10/21 08:00:04;;;;;;;5.87;2.63;;;7.00;99.90;;;;;;5075262;28;20210;-87
2022/10/21 08:02:30;;;;;;;4.10;2.53;;;7.00;99.90;;;;;;5093633;28;20173;-87
2022/10/21 08:04:56;;;;;;;6.13;2.83;;;7.10;99.90;;;;;;5058817;28;20170;-88
2022/10/21 08:07:21;;;;;;;2.67;2.10;;;7.10;99.90;;;;;;5059446;28;20187;-87
2022/10/21 08:09:48;;;;;;;5.03;2.40;;;7.10;99.90;;;;;;5075812;28;20178;-87
2022/10/21 08:12:13;;;;;;;5.30;2.70;;;7.20;99.90;;;;;;5075350;28;20178;-88
2022/10/21 08:14:39;;;;;;;2.60;2.13;;;7.50;99.90;;;;;;5094916;28;20201;-87
2022/10/21 08:17:05;;;;;;;3.43;2.73;;;7.40;99.90;;;;;;5086284;28;20205;-86
2022/10/21 08:19:31;;;;;;;7.50;3.03;;;7.50;99.90;;;;;;5103318;28;20206;-88
2022/10/21 08:21:59;;;;;;;5.10;2.17;;;7.60;99.90;;;;;;5099482;28;20507;-90
2022/10/21 08:24:26;;;;;;;3.13;2.17;;;;;;;;;;5093788;28;20175;-88
2022/10/21 08:26:53;;;;;;;8.47;3.10;;;;;;;;;;5093561;28;20170;-90
2022/10/21 08:29:18;;;;;;;3.37;1.57;;;10.00;99.90;;;;;;5075475;28;20210;-88
2022/10/21 08:31:44;;;;;;;5.37;2.67;;;7.90;99.90;;;;;;5059316;28;20282;-87
2022/10/21 08:34:10;;;;;;;4.20;2.17;;;8.00;99.90;;;;;;5093404;28;20539;-86
2022/10/21 08:36:37;;;;;;;7.70;2.90;;;8.20;99.90;;;;;;5076176;28;20179;-87
2022/10/21 08:39:04;;;;;;;3.10;1.97;;;8.20;99.90;;;;;;5076286;28;20215;-87
2022/10/21 08:41:29;;;;;;;6.13;2.20;;;8.20;99.90;;;;;;5076404;28;20206;-88
2022/10/21 08:44:09;;;;;;;3.37;2.17;;;8.30;99.90;;;;;;5077398;28;20639;-92
2022/10/21 08:46:42;;;;;;;4.23;2.33;;;8.40;99.90;;;;;;5075526;28;20296;-88
2022/10/21 08:49:23;;;;;;;2.60;2.20;;;8.50;99.90;;;;;;5075347;28;20179;-88
2022/10/21 08:51:55;;;;;;;2.63;2.03;;;8.60;99.90;;;;;;5075951;28;20186;-89
2022/10/21 08:54:26;;;;;;;3.87;2.17;;;8.70;99.90;;;;;;5078922;28;20270;-89
2022/10/21 08:56:57;;;;;;;6.33;2.50;;;8.90;99.90;;;;;;5078892;28;20222;-89
2022/10/21 08:59:25;;;;;;;6.30;2.60;;;9.00;99.90;;;;;;5097479;28;20206;-88
2022/10/21 09:02:16;;;;;;;3.27;2.23;;;9.10;99.90;;;;;;5097443;28;20590;-88
2022/10/21 09:04:54;;;;;;;6.20;2.33;;;9.10;99.90;;;;;;5079237;28;20174;-87
2022/10/21 09:07:39;;;;;;;4.20;2.13;;;9.30;99.90;;;;;;5079000;28;20178;-87
2022/10/21 09:10:30;;;;;;;2.10;1.73;;;9.50;99.90;;;;;;5097211;28;20170;-88
2022/10/21 09:13:14;;;;;;;3.57;2.60;;;9.70;99.90;;;;;;5079641;28;20201;-87
2022/10/21 09:16:18;;;;;;;4.43;2.60;;;9.80;99.90;;;;;;5079509;28;20261;-88
2022/10/21 09:19:03;;;;;;;2.50;1.87;;;9.90;99.90;;;;;;5079394;28;20183;-88
2022/10/21 09:21:53;;;;;;;2.37;1.77;;;10.00;99.90;;;;;;5097082;28;20162;-87
2022/10/21 09:24:40;;;;;;;5.10;2.53;;;10.10;99.90;;;;;;5078516;28;20645;-89
2022/10/21 09:27:09;;;;;;;3.27;2.20;;;10.20;99.90;;;;;;5096888;28;20170;-88
2022/10/21 09:29:43;;;;;;;6.03;2.87;;;10.20;99.90;;;;;;5096634;28;20653;-88
2022/10/21 09:32:26;;;;;;;4.03;2.20;;;10.20;99.90;;;;;;5096848;28;20165;-87
2022/10/21 09:35:19;;;;;;;3.78;2.03;;;10.30;99.90;;;;;;5079014;28;20534;-87
2022/10/21 09:37:46;;;;;;;6.83;2.80;;;10.20;99.90;;;;;;5078477;28;20174;-88
2022/10/21 09:40:18;;;;;;;2.42;1.98;;;10.10;99.90;;;;;;5078281;28;20681;-89
2022/10/21 09:42:47;;;;;;;3.92;2.38;;;10.10;99.90;;;;;;5078769;28;20178;-87
2022/10/21 09:45:35;;;;;;;6.00;3.17;;;10.20;99.90;;;;;;5095977;28;20689;-88
2022/10/21 09:48:19;;;;;;;3.57;2.03;;;10.20;99.90;;;;;;5077861;28;20182;-87
2022/10/21 09:51:08;;;;;;;4.65;2.22;;;10.30;99.90;;;;;;5083067;28;20190;-88
2022/10/21 09:53:44;;;;;;;3.75;2.03;;;10.50;99.90;;;;;;5085466;28;20175;-88
2022/10/21 09:56:21;;;;;;;4.63;2.47;;;10.60;99.90;;;;;;5078331;28;20177;-89
2022/10/21 09:59:18;;;;;;;4.40;2.57;;;10.90;99.90;;;;;;5077704;28;20241;-89
2022/10/21 10:01:45;;;;;;;5.07;2.07;;;11.20;99.90;;;;;;5057248;28;20191;-90
2022/10/21 10:04:10;;;;;;;5.97;2.40;;;11.40;99.90;;;;;;5095453;28;20628;-88
2022/10/21 10:06:43;;;;;;;4.35;2.40;;;11.60;99.90;;;;;;5078739;28;20220;-87
2022/10/21 10:09:28;;;;;;;2.28;2.03;;;11.80;99.90;;;;;;5095272;28;20182;-89
2022/10/21 10:12:10;;;;;;;3.30;2.05;;;12.10;99.90;;;;;;5095332;28;20532;-90
2022/10/21 10:14:44;;;;;;;5.75;2.20;;;12.10;99.90;;;;;;5078074;28;20638;-89
2022/10/21 10:17:30;;;;;;;4.13;2.28;;;12.20;99.90;;;;;;5077217;28;20186;-90
2022/10/21 10:20:16;;;;;;;3.95;2.33;;;12.20;99.90;;;;;;5077324;28;20209;-90
2022/10/21 10:23:01;;;;;;;4.47;2.33;;;12.20;99.90;;;;;;5077233;28;20257;-89
2022/10/21 10:25:31;;;;;;;2.88;1.42;;;12.30;99.90;;;;;;5077546;28;20201;-88
2022/10/21 10:28:01;;;;;;;2.88;1.70;;;12.40;99.90;;;;;;5095570;28;20171;-88
2022/10/21 10:30:37;;;;;;;4.70;1.58;;;12.50;99.90;;;;;;5076867;28;20183;-90
2022/10/21 10:33:22;;;;;;;4.97;1.77;;;12.70;99.70;;;;;;5095098;28;20508;-89
2022/10/21 10:35:51;;;;;;;2.38;1.70;;;12.90;99.50;;;;;;5097370;28;20171;-92
2022/10/21 10:38:40;;;;;;;3.05;1.40;;;12.90;96.60;;;;;;5095290;28;20627;-90
2022/10/21 10:41:14;;;;;;;3.05;1.83;;;12.70;97.20;;;;;;5095011;28;20193;-90
2022/10/21 10:43:46;;;;;;;3.50;2.20;;;12.70;97.40;;;;;;5077459;28;20174;-90
2022/10/21 10:46:21;;;;;;;4.40;2.63;;;12.40;97.20;;;;;;5077243;28;20178;-90
2022/10/21 10:48:50;;;;;;;3.90;2.17;;;12.10;97.80;;;;;;5094957;28;20654;-90
2022/10/21 10:51:36;;;;;;;4.10;2.22;;;12.00;99.60;;;;;;5076767;28;20178;-92
2022/10/21 10:54:16;;;;;;;5.75;2.10;;;11.90;98.90;;;;;;5059350;28;20201;-89
2022/10/21 10:56:55;;;;;;;3.85;1.70;;;11.80;98.90;;;;;;5078761;28;20645;-87
2022/10/21 10:59:46;;;;;;;5.68;2.33;;;11.70;98.70;;;;;;5094617;28;20210;-89
2022/10/21 11:02:18;;;;;;;3.83;2.20;;;11.70;99.60;;;;;;5097683;28;20537;-88
2022/10/21 11:05:12;;;;;;;1.75;1.30;;;11.70;97.90;;;;;;5089654;28;20205;-92
2022/10/21 11:07:56;;;;;;;3.40;2.05;;;11.60;98.90;;;;;;5083278;28;20185;-87
2022/10/21 11:10:35;;;;;;;7.47;1.63;;;11.70;98.10;;;;;;5094252;28;20170;-87
2022/10/21 11:13:04;;;;;;;3.38;1.65;;;11.60;98.90;;;;;;5076702;28;20178;-89
2022/10/21 11:15:49;;;;;;;3.05;1.67;;;11.60;97.40;;;;;;5079307;28;20178;-87
2022/10/21 11:18:30;;;;;;;2.95;1.73;;;11.60;98.00;;;;;;5044884;28;20192;-87
2022/10/21 11:21:01;;;;;;;4.25;1.33;;;11.80;99.20;;;;;;5076105;28;20190;-87
2022/10/21 11:24:08;;;;;;;3.90;1.90;;;11.80;97.50;;;;;;5075962;28;20185;-88
2022/10/21 11:26:40;;;;;;;3.92;1.85;;;11.90;98.10;;;;;;5053671;28;20185;-88
2022/10/21 11:29:08;;;;;;;3.50;1.63;;;11.90;97.00;;;;;;5075902;28;20186;-87
2022/10/21 11:31:50;;;;;;;2.90;2.10;;;12.10;95.80;;;;;;5093354;28;20174;-88
2022/10/21 11:34:32;;;;;;;4.00;2.47;;;12.10;95.60;;;;;;5075817;28;20217;-88
2022/10/21 11:37:16;;;;;;;4.18;1.98;;;12.10;95.50;;;;;;5075749;28;20523;-89
2022/10/21 11:40:22;;;;;;;4.75;1.88;;;12.20;95.70;;;;;;5093938;28;20217;-89
2022/10/21 11:42:51;;;;;;;4.15;2.30;;;12.30;95.40;;;;;;5074719;28;20186;-89
2022/10/21 11:45:35;;;;;;;4.53;2.42;;;12.60;94.00;;;;;;5075517;28;20573;-89
2022/10/21 11:48:23;;;;;;;5.20;2.70;;;12.70;92.70;;;;;;5075752;28;20182;-88
2022/10/21 11:51:15;;;;;;;3.00;1.95;;;12.70;92.20;;;;;;5075802;28;20178;-90
2022/10/21 11:53:50;;;;;;;4.45;2.63;;;12.80;92.70;;;;;;5075275;28;20178;-89
2022/10/21 11:56:47;;;;;;;4.88;2.30;;;12.70;92.10;;;;;;5075579;28;20177;-89
2022/10/21 11:59:49;;;;;;;2.05;1.88;;;12.60;92.90;;;;;;5075675;28;20301;-89
2022/10/21 12:02:16;;;;;;;4.20;2.33;;;12.60;93.10;;;;;;5093861;28;20178;-89
2022/10/21 12:05:07;;;;;;;4.35;2.55;;;12.60;92.10;;;;;;5075898;28;20186;-89
2022/10/21 12:08:01;;;;;;;5.35;2.30;;;12.70;93.20;;;;;;5075959;28;20174;-89
2022/10/21 12:10:41;;;;;;;3.30;1.77;;;12.70;92.40;;;;;;5076065;28;20185;-88
2022/10/21 12:13:21;;;;;;;3.47;1.90;;;12.50;92.80;;;;;;5076682;28;20582;-90
2022/10/21 12:16:16;;;;;;;4.63;2.20;;;12.40;92.70;;;;;;5093877;28;20517;-88
2022/10/21 12:18:54;;;;;;;3.17;1.88;;;12.30;93.60;;;;;;5073569;28;20289;-88
2022/10/21 12:21:24;;;;;;;3.55;1.95;;;12.30;93.90;;;;;;5076264;28;20174;-89
2022/10/21 12:24:00;;;;;;;3.95;2.17;;;12.40;94.00;;;;;;5097066;28;20179;-89
2022/10/21 12:26:42;;;;;;;3.88;1.92;;;12.60;92.40;;;;;;5077743;28;20240;-90
2022/10/21 12:29:26;;;;;;;3.80;2.05;;;12.90;94.50;;;;;;5097750;28;20231;-89
2022/10/21 12:32:03;;;;;;;2.72;1.95;;;13.20;92.60;;;;;;5081104;28;20182;-92
2022/10/21 12:34:29;;;;;;;2.03;1.65;;;13.30;91.40;;;;;;5079971;28;20691;-89
2022/10/21 12:36:55;;;;;;;4.00;1.77;;;13.30;91.80;;;;;;5071568;27;20170;-88
2022/10/21 12:39:32;;;;;;;3.13;2.25;;;13.50;91.60;;;;;;5121926;27;20190;-86
2022/10/21 12:42:23;;;;;;;3.67;1.92;;;13.60;90.90;;;;;;5121418;27;20173;-89
2022/10/21 12:44:51;;;;;;;3.53;2.17;;;13.40;90.50;;;;;;5103281;28;20174;-86
2022/10/21 12:47:33;;;;;;;4.63;2.72;;;13.20;90.10;;;;;;5104157;27;20174;-86
2022/10/21 12:50:21;;;;;;;3.63;2.50;;;13.00;90.70;;;;;;5104140;27;20158;-86
2022/10/21 12:53:11;;;;;;;6.72;3.40;;;12.90;91.30;;;;;;5121342;27;21040;-85
2022/10/21 12:55:39;;;;;;;7.63;3.03;;;13.10;92.10;;;;;;5103261;27;20186;-89
2022/10/21 12:58:23;;;;;;;4.93;2.20;;;13.50;91.60;;;;;;5119711;27;20242;-88
2022/10/21 13:00:50;;;;;;;6.47;2.67;;;13.60;90.40;;;;;;5102275;28;20190;-87
2022/10/21 13:03:41;;;;;;;4.13;2.80;;;13.60;89.20;;;;;;5103464;28;20220;-85
2022/10/21 13:06:06;;;;;;;6.65;3.17;;;13.60;88.40;;;;;;5103443;28;20184;-86
2022/10/21 13:08:48;;;;;;;5.28;2.20;;;13.50;89.10;;;;;;5086691;27;20155;-92
2022/10/21 13:11:35;;;;;;;10.00;2.60;;;13.30;88.30;;;;;;5103295;28;20174;-88
2022/10/21 13:14:15;;;;;;;4.18;2.17;;;13.40;87.60;;;;;;5097138;28;20162;-87
2022/10/21 13:16:43;;;;;;;7.35;3.60;;;13.40;86.90;;;;;;5077997;28;20321;-88
2022/10/21 13:19:15;;;;;;;5.95;3.17;;;12.30;87.80;;;;;;5096544;28;20211;-88
2022/10/21 13:21:42;;;;;;;4.63;3.22;;;13.20;90.00;;;;;;5097426;28;20219;-89